sensor_id;sensor_type;location;lat;lon;timestamp;P1;durP1;ratioP1;P2;durP2;ratioP2
23543;SDS011;11950;51.230;4.012;2022-12-20T00:01:11;2.85;;;2.30;;
23543;SDS011;11950;51.230;4.012;2022-12-20T00:03:38;2.97;;;2.38;;
23543;SDS011;11950;51.230;4.012;2022-12-20T00:06:05;2.65;;;2.22;;
23543;SDS011;11950;51.230;4.012;2022-12-20T00:08:31;4.78;;;2.35;;
23543;SDS011;11950;51.230;4.012;2022-12-20T00:11:00;3.75;;;2.70;;
23543;SDS011;11950;51.230;4.012;2022-12-20T00:13:28;3.85;;;2.33;;
23543;SDS011;11950;51.230;4.012;2022-12-20T00:18:31;4.95;;;2.50;;
23543;SDS011;11950;51.230;4.012;2022-12-20T00:20:58;3.22;;;2.40;;
23543;SDS011;11950;51.230;4.012;2022-12-20T00:23:25;4.35;;;2.40;;
23543;SDS011;11950;51.230;4.012;2022-12-20T00:25:51;4.50;;;2.50;;
23543;SDS011;11950;51.230;4.012;2022-12-20T00:28:18;6.03;;;3.15;;
23543;SDS011;11950;51.230;4.012;2022-12-20T00:30:44;4.65;;;2.60;;
23543;SDS011;11950;51.230;4.012;2022-12-20T00:33:10;5.72;;;2.97;;
23543;SDS011;11950;51.230;4.012;2022-12-20T00:35:40;4.45;;;2.53;;
23543;SDS011;11950;51.230;4.012;2022-12-20T00:38:07;3.08;;;2.78;;
23543;SDS011;11950;51.230;4.012;2022-12-20T00:40:33;2.85;;;2.58;;
23543;SDS011;11950;51.230;4.012;2022-12-20T00:43:00;5.32;;;2.92;;
23543;SDS011;11950;51.230;4.012;2022-12-20T00:45:26;4.20;;;2.65;;
23543;SDS011;11950;51.230;4.012;2022-12-20T00:47:52;5.22;;;2.88;;
23543;SDS011;11950;51.230;4.012;2022-12-20T00:50:18;5.80;;;2.70;;
23543;SDS011;11950;51.230;4.012;2022-12-20T00:52:45;4.75;;;2.85;;
23543;SDS011;11950;51.230;4.012;2022-12-20T00:55:11;3.97;;;2.53;;
23543;SDS011;11950;51.230;4.012;2022-12-20T00:57:37;3.30;;;2.70;;
23543;SDS011;11950;51.230;4.012;2022-12-20T01:00:04;6.43;;;3.05;;
23543;SDS011;11950;51.230;4.012;2022-12-20T01:02:31;3.85;;;2.90;;
23543;SDS011;11950;51.230;4.012;2022-12-20T01:04:57;5.28;;;3.40;;
23543;SDS011;11950;51.230;4.012;2022-12-20T01:07:24;5.25;;;2.90;;
23543;SDS011;11950;51.230;4.012;2022-12-20T01:09:50;6.70;;;3.33;;
23543;SDS011;11950;51.230;4.012;2022-12-20T01:12:17;3.35;;;3.00;;
23543;SDS011;11950;51.230;4.012;2022-12-20T01:14:43;3.42;;;2.65;;
23543;SDS011;11950;51.230;4.012;2022-12-20T01:17:09;5.25;;;2.83;;
23543;SDS011;11950;51.230;4.012;2022-12-20T01:19:36;4.15;;;3.08;;
23543;SDS011;11950;51.230;4.012;2022-12-20T01:22:02;5.75;;;3.13;;
23543;SDS011;11950;51.230;4.012;2022-12-20T01:24:28;6.00;;;3.15;;
23543;SDS011;11950;51.230;4.012;2022-12-20T01:26:54;5.30;;;3.20;;
23543;SDS011;11950;51.230;4.012;2022-12-20T01:29:21;5.00;;;3.00;;
23543;SDS011;11950;51.230;4.012;2022-12-20T01:31:47;3.25;;;2.88;;
23543;SDS011;11950;51.230;4.012;2022-12-20T01:34:14;3.20;;;2.90;;
23543;SDS011;11950;51.230;4.012;2022-12-20T01:36:40;6.70;;;2.83;;
23543;SDS011;11950;51.230;4.012;2022-12-20T01:39:09;5.78;;;2.83;;
23543;SDS011;11950;51.230;4.012;2022-12-20T01:41:38;6.47;;;3.15;;
23543;SDS011;11950;51.230;4.012;2022-12-20T01:44:05;7.50;;;2.97;;
23543;SDS011;11950;51.230;4.012;2022-12-20T01:46:52;3.47;;;2.85;;
23543;SDS011;11950;51.230;4.012;2022-12-20T01:49:27;4.13;;;2.70;;
23543;SDS011;11950;51.230;4.012;2022-12-20T01:54:29;4.07;;;2.67;;
23543;SDS011;11950;51.230;4.012;2022-12-20T01:57:20;4.55;;;2.65;;
23543;SDS011;11950;51.230;4.012;2022-12-20T01:59:54;6.00;;;3.10;;
23543;SDS011;11950;51.230;4.012;2022-12-20T02:02:22;3.95;;;3.08;;
23543;SDS011;11950;51.230;4.012;2022-12-20T02:04:48;3.75;;;2.80;;
23543;SDS011;11950;51.230;4.012;2022-12-20T02:07:20;5.78;;;2.95;;
23543;SDS011;11950;51.230;4.012;2022-12-20T02:09:49;3.38;;;2.97;;
23543;SDS011;11950;51.230;4.012;2022-12-20T02:12:18;3.83;;;2.55;;
23543;SDS011;11950;51.230;4.012;2022-12-20T02:25:51;4.80;;;3.00;;
23543;SDS011;11950;51.230;4.012;2022-12-20T02:31:42;3.15;;;2.83;;
23543;SDS011;11950;51.230;4.012;2022-12-20T02:34:14;4.60;;;2.80;;
23543;SDS011;11950;51.230;4.012;2022-12-20T02:36:42;5.90;;;3.17;;
23543;SDS011;11950;51.230;4.012;2022-12-20T02:39:12;5.78;;;2.80;;
23543;SDS011;11950;51.230;4.012;2022-12-20T02:41:50;6.15;;;3.13;;
23543;SDS011;11950;51.230;4.012;2022-12-20T02:44:20;3.78;;;2.50;;
23543;SDS011;11950;51.230;4.012;2022-12-20T02:47:09;5.57;;;3.22;;
23543;SDS011;11950;51.230;4.012;2022-12-20T02:49:39;4.60;;;2.88;;
23543;SDS011;11950;51.230;4.012;2022-12-20T02:52:08;2.95;;;2.65;;
23543;SDS011;11950;51.230;4.012;2022-12-20T02:54:37;5.85;;;2.97;;
23543;SDS011;11950;51.230;4.012;2022-12-20T02:57:09;3.80;;;2.95;;
23543;SDS011;11950;51.230;4.012;2022-12-20T02:59:50;2.85;;;2.50;;
23543;SDS011;11950;51.230;4.012;2022-12-20T03:02:23;5.80;;;3.38;;
23543;SDS011;11950;51.230;4.012;2022-12-20T03:04:51;7.15;;;3.42;;
23543;SDS011;11950;51.230;4.012;2022-12-20T03:07:18;3.97;;;2.50;;
23543;SDS011;11950;51.230;4.012;2022-12-20T03:09:45;3.75;;;3.00;;
23543;SDS011;11950;51.230;4.012;2022-12-20T03:12:13;5.32;;;2.65;;
23543;SDS011;11950;51.230;4.012;2022-12-20T03:14:43;3.80;;;2.75;;
23543;SDS011;11950;51.230;4.012;2022-12-20T03:17:11;8.20;;;2.85;;
23543;SDS011;11950;51.230;4.012;2022-12-20T03:19:37;2.97;;;2.67;;
23543;SDS011;11950;51.230;4.012;2022-12-20T03:22:04;4.93;;;2.70;;
23543;SDS011;11950;51.230;4.012;2022-12-20T03:24:31;6.80;;;2.40;;
23543;SDS011;11950;51.230;4.012;2022-12-20T03:26:58;6.10;;;2.97;;
23543;SDS011;11950;51.230;4.012;2022-12-20T03:29:25;6.72;;;3.58;;
23543;SDS011;11950;51.230;4.012;2022-12-20T03:31:52;3.13;;;2.83;;
23543;SDS011;11950;51.230;4.012;2022-12-20T03:34:18;8.40;;;2.80;;
23543;SDS011;11950;51.230;4.012;2022-12-20T03:36:44;5.15;;;2.92;;
23543;SDS011;11950;51.230;4.012;2022-12-20T03:39:10;5.15;;;2.97;;
23543;SDS011;11950;51.230;4.012;2022-12-20T03:41:39;3.03;;;2.50;;
23543;SDS011;11950;51.230;4.012;2022-12-20T03:44:08;3.50;;;2.97;;
23543;SDS011;11950;51.230;4.012;2022-12-20T03:46:34;4.25;;;3.10;;
23543;SDS011;11950;51.230;4.012;2022-12-20T03:49:02;3.72;;;3.00;;
23543;SDS011;11950;51.230;4.012;2022-12-20T03:51:28;7.00;;;3.45;;
23543;SDS011;11950;51.230;4.012;2022-12-20T03:53:55;3.42;;;2.85;;
23543;SDS011;11950;51.230;4.012;2022-12-20T03:56:30;4.93;;;3.08;;
23543;SDS011;11950;51.230;4.012;2022-12-20T03:58:56;6.97;;;3.22;;
23543;SDS011;11950;51.230;4.012;2022-12-20T04:01:25;6.10;;;3.00;;
23543;SDS011;11950;51.230;4.012;2022-12-20T04:03:54;7.07;;;3.03;;
23543;SDS011;11950;51.230;4.012;2022-12-20T04:06:21;6.18;;;2.88;;
23543;SDS011;11950;51.230;4.012;2022-12-20T04:08:50;4.97;;;3.03;;
23543;SDS011;11950;51.230;4.012;2022-12-20T04:11:23;4.45;;;3.00;;
23543;SDS011;11950;51.230;4.012;2022-12-20T04:13:54;5.47;;;3.00;;
23543;SDS011;11950;51.230;4.012;2022-12-20T04:16:22;6.07;;;3.75;;
23543;SDS011;11950;51.230;4.012;2022-12-20T04:18:50;4.57;;;3.20;;
23543;SDS011;11950;51.230;4.012;2022-12-20T04:21:21;6.35;;;3.03;;
23543;SDS011;11950;51.230;4.012;2022-12-20T04:23:51;4.10;;;2.80;;
23543;SDS011;11950;51.230;4.012;2022-12-20T04:26:18;6.93;;;2.95;;
23543;SDS011;11950;51.230;4.012;2022-12-20T04:28:46;4.18;;;2.85;;
23543;SDS011;11950;51.230;4.012;2022-12-20T04:31:12;4.95;;;2.83;;
23543;SDS011;11950;51.230;4.012;2022-12-20T04:33:38;4.15;;;2.30;;
23543;SDS011;11950;51.230;4.012;2022-12-20T04:36:05;8.13;;;2.90;;
23543;SDS011;11950;51.230;4.012;2022-12-20T04:38:33;4.80;;;2.55;;
23543;SDS011;11950;51.230;4.012;2022-12-20T04:41:00;2.65;;;2.20;;
23543;SDS011;11950;51.230;4.012;2022-12-20T04:43:35;4.38;;;2.35;;
23543;SDS011;11950;51.230;4.012;2022-12-20T04:46:03;3.92;;;2.10;;
23543;SDS011;11950;51.230;4.012;2022-12-20T04:48:29;2.60;;;2.40;;
23543;SDS011;11950;51.230;4.012;2022-12-20T04:50:56;3.40;;;2.65;;
23543;SDS011;11950;51.230;4.012;2022-12-20T04:53:23;2.75;;;2.15;;
23543;SDS011;11950;51.230;4.012;2022-12-20T04:56:09;4.07;;;2.67;;
23543;SDS011;11950;51.230;4.012;2022-12-20T04:58:36;3.92;;;2.22;;
23543;SDS011;11950;51.230;4.012;2022-12-20T05:01:06;5.28;;;2.10;;
23543;SDS011;11950;51.230;4.012;2022-12-20T05:03:41;3.40;;;2.35;;
23543;SDS011;11950;51.230;4.012;2022-12-20T05:06:07;3.22;;;2.30;;
23543;SDS011;11950;51.230;4.012;2022-12-20T05:08:35;2.78;;;2.03;;
23543;SDS011;11950;51.230;4.012;2022-12-20T05:11:02;6.97;;;2.85;;
23543;SDS011;11950;51.230;4.012;2022-12-20T05:13:32;5.07;;;2.22;;
23543;SDS011;11950;51.230;4.012;2022-12-20T05:16:00;3.60;;;2.13;;
23543;SDS011;11950;51.230;4.012;2022-12-20T05:18:31;4.35;;;2.20;;
23543;SDS011;11950;51.230;4.012;2022-12-20T05:21:01;2.92;;;1.85;;
23543;SDS011;11950;51.230;4.012;2022-12-20T05:23:49;3.78;;;2.30;;
23543;SDS011;11950;51.230;4.012;2022-12-20T05:27:09;3.38;;;2.00;;
23543;SDS011;11950;51.230;4.012;2022-12-20T05:29:36;3.03;;;2.45;;
23543;SDS011;11950;51.230;4.012;2022-12-20T05:32:02;3.47;;;2.00;;
23543;SDS011;11950;51.230;4.012;2022-12-20T05:34:29;2.83;;;1.90;;
23543;SDS011;11950;51.230;4.012;2022-12-20T05:36:55;2.45;;;2.00;;
23543;SDS011;11950;51.230;4.012;2022-12-20T05:39:25;3.17;;;2.10;;
23543;SDS011;11950;51.230;4.012;2022-12-20T05:41:56;3.33;;;1.92;;
23543;SDS011;11950;51.230;4.012;2022-12-20T05:44:24;3.10;;;1.60;;
23543;SDS011;11950;51.230;4.012;2022-12-20T05:46:53;5.03;;;1.90;;
23543;SDS011;11950;51.230;4.012;2022-12-20T05:49:25;3.08;;;1.88;;
23543;SDS011;11950;51.230;4.012;2022-12-20T05:51:52;2.72;;;1.80;;
23543;SDS011;11950;51.230;4.012;2022-12-20T05:54:24;5.57;;;1.80;;
23543;SDS011;11950;51.230;4.012;2022-12-20T05:56:59;3.63;;;1.90;;
23543;SDS011;11950;51.230;4.012;2022-12-20T05:59:33;2.38;;;1.50;;
23543;SDS011;11950;51.230;4.012;2022-12-20T06:02:01;3.67;;;1.75;;
23543;SDS011;11950;51.230;4.012;2022-12-20T06:04:28;3.95;;;1.65;;
23543;SDS011;11950;51.230;4.012;2022-12-20T06:06:56;5.47;;;1.92;;
23543;SDS011;11950;51.230;4.012;2022-12-20T06:09:24;3.13;;;1.85;;
23543;SDS011;11950;51.230;4.012;2022-12-20T06:12:10;3.08;;;1.80;;
23543;SDS011;11950;51.230;4.012;2022-12-20T06:14:38;2.30;;;1.80;;
23543;SDS011;11950;51.230;4.012;2022-12-20T06:17:04;5.40;;;1.75;;
23543;SDS011;11950;51.230;4.012;2022-12-20T06:19:31;5.10;;;2.40;;
23543;SDS011;11950;51.230;4.012;2022-12-20T06:21:58;5.00;;;2.67;;
23543;SDS011;11950;51.230;4.012;2022-12-20T06:24:44;5.90;;;2.03;;
23543;SDS011;11950;51.230;4.012;2022-12-20T06:27:10;2.63;;;1.88;;
23543;SDS011;11950;51.230;4.012;2022-12-20T06:29:37;4.55;;;1.92;;
23543;SDS011;11950;51.230;4.012;2022-12-20T06:32:08;5.70;;;1.98;;
23543;SDS011;11950;51.230;4.012;2022-12-20T06:34:36;2.10;;;1.70;;
23543;SDS011;11950;51.230;4.012;2022-12-20T06:37:02;3.50;;;2.15;;
23543;SDS011;11950;51.230;4.012;2022-12-20T06:39:32;5.32;;;1.60;;
23543;SDS011;11950;51.230;4.012;2022-12-20T06:42:02;3.15;;;1.60;;
23543;SDS011;11950;51.230;4.012;2022-12-20T06:44:28;2.05;;;1.67;;
23543;SDS011;11950;51.230;4.012;2022-12-20T06:46:55;2.28;;;1.77;;
23543;SDS011;11950;51.230;4.012;2022-12-20T06:49:22;2.95;;;1.80;;
23543;SDS011;11950;51.230;4.012;2022-12-20T06:51:49;7.07;;;1.90;;
23543;SDS011;11950;51.230;4.012;2022-12-20T06:54:18;3.33;;;1.80;;
23543;SDS011;11950;51.230;4.012;2022-12-20T06:56:45;4.07;;;1.80;;
23543;SDS011;11950;51.230;4.012;2022-12-20T06:59:13;3.83;;;1.73;;
23543;SDS011;11950;51.230;4.012;2022-12-20T07:01:39;2.58;;;1.60;;
23543;SDS011;11950;51.230;4.012;2022-12-20T07:04:05;3.20;;;1.77;;
23543;SDS011;11950;51.230;4.012;2022-12-20T07:06:31;3.83;;;1.98;;
23543;SDS011;11950;51.230;4.012;2022-12-20T07:08:58;2.78;;;1.50;;
23543;SDS011;11950;51.230;4.012;2022-12-20T07:11:24;4.18;;;1.95;;
23543;SDS011;11950;51.230;4.012;2022-12-20T07:13:54;4.47;;;1.90;;
23543;SDS011;11950;51.230;4.012;2022-12-20T07:16:21;2.25;;;1.70;;
23543;SDS011;11950;51.230;4.012;2022-12-20T07:18:49;6.93;;;1.80;;
23543;SDS011;11950;51.230;4.012;2022-12-20T07:21:17;3.80;;;1.92;;
23543;SDS011;11950;51.230;4.012;2022-12-20T07:23:44;5.38;;;1.80;;
23543;SDS011;11950;51.230;4.012;2022-12-20T07:26:11;6.00;;;1.63;;
23543;SDS011;11950;51.230;4.012;2022-12-20T07:28:39;2.78;;;1.55;;
23543;SDS011;11950;51.230;4.012;2022-12-20T07:31:05;2.53;;;1.50;;
23543;SDS011;11950;51.230;4.012;2022-12-20T07:33:32;3.83;;;1.63;;
23543;SDS011;11950;51.230;4.012;2022-12-20T07:36:02;2.75;;;1.70;;
23543;SDS011;11950;51.230;4.012;2022-12-20T07:38:30;3.63;;;1.50;;
23543;SDS011;11950;51.230;4.012;2022-12-20T07:40:57;4.68;;;1.75;;
23543;SDS011;11950;51.230;4.012;2022-12-20T07:43:23;4.47;;;1.92;;
23543;SDS011;11950;51.230;4.012;2022-12-20T07:45:53;5.00;;;1.80;;
23543;SDS011;11950;51.230;4.012;2022-12-20T07:48:21;3.70;;;1.73;;
23543;SDS011;11950;51.230;4.012;2022-12-20T07:50:50;6.22;;;2.40;;
23543;SDS011;11950;51.230;4.012;2022-12-20T07:53:19;6.28;;;1.90;;
23543;SDS011;11950;51.230;4.012;2022-12-20T07:55:48;4.90;;;2.13;;
23543;SDS011;11950;51.230;4.012;2022-12-20T07:58:14;4.78;;;1.52;;
23543;SDS011;11950;51.230;4.012;2022-12-20T08:00:43;4.35;;;1.50;;
23543;SDS011;11950;51.230;4.012;2022-12-20T08:03:27;4.40;;;1.70;;
23543;SDS011;11950;51.230;4.012;2022-12-20T08:05:58;4.03;;;1.75;;
23543;SDS011;11950;51.230;4.012;2022-12-20T08:08:29;4.07;;;1.77;;
23543;SDS011;11950;51.230;4.012;2022-12-20T08:10:57;9.07;;;1.90;;
23543;SDS011;11950;51.230;4.012;2022-12-20T08:13:24;4.32;;;1.70;;
23543;SDS011;11950;51.230;4.012;2022-12-20T08:15:51;6.60;;;2.15;;
23543;SDS011;11950;51.230;4.012;2022-12-20T08:18:17;5.40;;;1.58;;
23543;SDS011;11950;51.230;4.012;2022-12-20T08:20:43;3.10;;;1.45;;
23543;SDS011;11950;51.230;4.012;2022-12-20T08:23:09;6.00;;;1.77;;
23543;SDS011;11950;51.230;4.012;2022-12-20T08:25:36;3.40;;;1.92;;
23543;SDS011;11950;51.230;4.012;2022-12-20T08:28:02;4.90;;;1.67;;
23543;SDS011;11950;51.230;4.012;2022-12-20T08:30:29;4.68;;;1.63;;
23543;SDS011;11950;51.230;4.012;2022-12-20T08:32:55;2.78;;;1.60;;
23543;SDS011;11950;51.230;4.012;2022-12-20T08:35:21;3.00;;;1.60;;
23543;SDS011;11950;51.230;4.012;2022-12-20T08:37:50;3.60;;;1.73;;
23543;SDS011;11950;51.230;4.012;2022-12-20T08:40:18;4.20;;;1.45;;
23543;SDS011;11950;51.230;4.012;2022-12-20T08:42:45;4.10;;;1.60;;
23543;SDS011;11950;51.230;4.012;2022-12-20T08:45:11;3.28;;;1.65;;
23543;SDS011;11950;51.230;4.012;2022-12-20T08:47:38;2.88;;;1.50;;
23543;SDS011;11950;51.230;4.012;2022-12-20T08:50:04;3.45;;;1.63;;
23543;SDS011;11950;51.230;4.012;2022-12-20T08:52:31;4.88;;;2.10;;
23543;SDS011;11950;51.230;4.012;2022-12-20T08:54:57;2.97;;;1.80;;
23543;SDS011;11950;51.230;4.012;2022-12-20T08:57:23;5.15;;;1.80;;
23543;SDS011;11950;51.230;4.012;2022-12-20T08:59:50;3.35;;;1.50;;
23543;SDS011;11950;51.230;4.012;2022-12-20T09:02:16;4.82;;;2.00;;
23543;SDS011;11950;51.230;4.012;2022-12-20T09:04:42;4.10;;;1.42;;
23543;SDS011;11950;51.230;4.012;2022-12-20T09:07:09;3.85;;;1.65;;
23543;SDS011;11950;51.230;4.012;2022-12-20T09:09:35;3.75;;;1.85;;
23543;SDS011;11950;51.230;4.012;2022-12-20T09:12:01;4.30;;;1.33;;
23543;SDS011;11950;51.230;4.012;2022-12-20T09:14:28;3.33;;;1.70;;
23543;SDS011;11950;51.230;4.012;2022-12-20T09:16:54;5.10;;;1.65;;
23543;SDS011;11950;51.230;4.012;2022-12-20T09:19:20;3.63;;;1.80;;
23543;SDS011;11950;51.230;4.012;2022-12-20T09:21:46;2.70;;;1.70;;
23543;SDS011;11950;51.230;4.012;2022-12-20T09:24:13;4.55;;;1.90;;
23543;SDS011;11950;51.230;4.012;2022-12-20T09:26:39;4.38;;;1.80;;
23543;SDS011;11950;51.230;4.012;2022-12-20T09:29:05;4.82;;;2.00;;
23543;SDS011;11950;51.230;4.012;2022-12-20T09:31:31;4.70;;;1.80;;
23543;SDS011;11950;51.230;4.012;2022-12-20T09:33:58;3.90;;;2.22;;
23543;SDS011;11950;51.230;4.012;2022-12-20T09:36:25;5.40;;;1.73;;
23543;SDS011;11950;51.230;4.012;2022-12-20T09:38:52;4.00;;;1.38;;
23543;SDS011;11950;51.230;4.012;2022-12-20T09:41:31;2.78;;;1.83;;
23543;SDS011;11950;51.230;4.012;2022-12-20T09:44:00;4.15;;;1.67;;
23543;SDS011;11950;51.230;4.012;2022-12-20T09:46:35;6.85;;;1.70;;
23543;SDS011;11950;51.230;4.012;2022-12-20T09:49:02;4.68;;;1.60;;
23543;SDS011;11950;51.230;4.012;2022-12-20T09:59:41;3.10;;;1.55;;
23543;SDS011;11950;51.230;4.012;2022-12-20T10:02:12;4.57;;;1.80;;
23543;SDS011;11950;51.230;4.012;2022-12-20T10:04:44;5.25;;;1.83;;
23543;SDS011;11950;51.230;4.012;2022-12-20T10:12:49;4.03;;;1.60;;
23543;SDS011;11950;51.230;4.012;2022-12-20T10:15:37;4.97;;;2.08;;
23543;SDS011;11950;51.230;4.012;2022-12-20T10:24:26;4.95;;;2.00;;
23543;SDS011;11950;51.230;4.012;2022-12-20T10:26:56;3.67;;;1.80;;
23543;SDS011;11950;51.230;4.012;2022-12-20T10:29:31;4.65;;;1.80;;
23543;SDS011;11950;51.230;4.012;2022-12-20T10:31:58;3.17;;;1.52;;
23543;SDS011;11950;51.230;4.012;2022-12-20T10:34:26;4.07;;;2.03;;
23543;SDS011;11950;51.230;4.012;2022-12-20T10:39:49;6.15;;;1.92;;
23543;SDS011;11950;51.230;4.012;2022-12-20T10:47:44;5.18;;;2.33;;
23543;SDS011;11950;51.230;4.012;2022-12-20T10:50:14;4.43;;;1.92;;
23543;SDS011;11950;51.230;4.012;2022-12-20T10:52:45;5.18;;;2.03;;
23543;SDS011;11950;51.230;4.012;2022-12-20T10:55:38;3.90;;;2.33;;
23543;SDS011;11950;51.230;4.012;2022-12-20T11:00:41;4.90;;;2.30;;
23543;SDS011;11950;51.230;4.012;2022-12-20T11:03:14;4.35;;;2.22;;
23543;SDS011;11950;51.230;4.012;2022-12-20T11:05:52;4.75;;;2.35;;
23543;SDS011;11950;51.230;4.012;2022-12-20T11:08:21;4.30;;;2.03;;
23543;SDS011;11950;51.230;4.012;2022-12-20T11:10:49;6.72;;;2.45;;
23543;SDS011;11950;51.230;4.012;2022-12-20T11:13:20;5.35;;;1.92;;
23543;SDS011;11950;51.230;4.012;2022-12-20T11:15:51;4.75;;;2.38;;
23543;SDS011;11950;51.230;4.012;2022-12-20T11:21:21;4.75;;;1.95;;
23543;SDS011;11950;51.230;4.012;2022-12-20T11:26:50;6.45;;;2.65;;
23543;SDS011;11950;51.230;4.012;2022-12-20T11:29:32;5.43;;;2.63;;
23543;SDS011;11950;51.230;4.012;2022-12-20T11:37:49;7.15;;;2.45;;
23543;SDS011;11950;51.230;4.012;2022-12-20T11:53:11;2.67;;;2.47;;
23543;SDS011;11950;51.230;4.012;2022-12-20T11:55:40;3.00;;;2.33;;
23543;SDS011;11950;51.230;4.012;2022-12-20T11:58:11;2.95;;;2.40;;
23543;SDS011;11950;51.230;4.012;2022-12-20T12:00:49;2.75;;;2.53;;
23543;SDS011;11950;51.230;4.012;2022-12-20T12:05:45;3.92;;;3.05;;
23543;SDS011;11950;51.230;4.012;2022-12-20T12:08:17;3.05;;;2.67;;
23543;SDS011;11950;51.230;4.012;2022-12-20T12:10:55;5.90;;;2.95;;
23543;SDS011;11950;51.230;4.012;2022-12-20T12:13:27;5.68;;;2.92;;
23543;SDS011;11950;51.230;4.012;2022-12-20T12:18:35;6.15;;;3.47;;
23543;SDS011;11950;51.230;4.012;2022-12-20T12:26:29;8.45;;;3.08;;
23543;SDS011;11950;51.230;4.012;2022-12-20T12:28:59;5.63;;;2.95;;
23543;SDS011;11950;51.230;4.012;2022-12-20T12:31:37;5.82;;;3.42;;
23543;SDS011;11950;51.230;4.012;2022-12-20T12:42:28;4.95;;;3.17;;
23543;SDS011;11950;51.230;4.012;2022-12-20T12:45:03;3.80;;;2.77;;
23543;SDS011;11950;51.230;4.012;2022-12-20T12:50:07;6.47;;;3.40;;
23543;SDS011;11950;51.230;4.012;2022-12-20T12:52:48;2.85;;;2.38;;
23543;SDS011;11950;51.230;4.012;2022-12-20T13:01:45;6.03;;;2.75;;
23543;SDS011;11950;51.230;4.012;2022-12-20T13:11:33;5.20;;;3.72;;
23543;SDS011;11950;51.230;4.012;2022-12-20T13:16:43;5.03;;;3.40;;
23543;SDS011;11950;51.230;4.012;2022-12-20T13:19:47;7.82;;;3.22;;
23543;SDS011;11950;51.230;4.012;2022-12-20T13:40:33;4.55;;;2.92;;
23543;SDS011;11950;51.230;4.012;2022-12-20T13:45:47;4.68;;;2.88;;
23543;SDS011;11950;51.230;4.012;2022-12-20T13:51:14;3.72;;;3.03;;
23543;SDS011;11950;51.230;4.012;2022-12-20T13:54:17;6.32;;;3.42;;
23543;SDS011;11950;51.230;4.012;2022-12-20T13:56:46;5.72;;;3.10;;
23543;SDS011;11950;51.230;4.012;2022-12-20T14:01:50;4.15;;;2.80;;
23543;SDS011;11950;51.230;4.012;2022-12-20T14:04:21;6.82;;;3.15;;
23543;SDS011;11950;51.230;4.012;2022-12-20T14:06:58;4.45;;;2.90;;
23543;SDS011;11950;51.230;4.012;2022-12-20T14:09:31;2.90;;;2.70;;
23543;SDS011;11950;51.230;4.012;2022-12-20T14:12:05;4.25;;;2.70;;
23543;SDS011;11950;51.230;4.012;2022-12-20T14:14:42;4.35;;;3.03;;
23543;SDS011;11950;51.230;4.012;2022-12-20T14:17:13;4.05;;;3.03;;
23543;SDS011;11950;51.230;4.012;2022-12-20T14:19:42;4.95;;;3.53;;
23543;SDS011;11950;51.230;4.012;2022-12-20T14:22:11;3.53;;;3.10;;
23543;SDS011;11950;51.230;4.012;2022-12-20T14:24:38;5.22;;;3.13;;
23543;SDS011;11950;51.230;4.012;2022-12-20T14:27:08;5.00;;;2.95;;
23543;SDS011;11950;51.230;4.012;2022-12-20T14:29:38;3.22;;;2.70;;
23543;SDS011;11950;51.230;4.012;2022-12-20T14:32:14;5.30;;;3.10;;
23543;SDS011;11950;51.230;4.012;2022-12-20T14:34:45;3.60;;;3.30;;
23543;SDS011;11950;51.230;4.012;2022-12-20T14:40:18;4.20;;;3.78;;
23543;SDS011;11950;51.230;4.012;2022-12-20T14:42:45;4.97;;;4.53;;
23543;SDS011;11950;51.230;4.012;2022-12-20T14:47:46;5.32;;;4.90;;
23543;SDS011;11950;51.230;4.012;2022-12-20T14:50:18;6.32;;;4.70;;
23543;SDS011;11950;51.230;4.012;2022-12-20T14:52:51;5.38;;;4.68;;
23543;SDS011;11950;51.230;4.012;2022-12-20T14:55:18;6.07;;;4.43;;
23543;SDS011;11950;51.230;4.012;2022-12-20T14:57:48;5.00;;;4.05;;
23543;SDS011;11950;51.230;4.012;2022-12-20T15:02:56;6.00;;;4.03;;
23543;SDS011;11950;51.230;4.012;2022-12-20T15:11:02;5.18;;;4.70;;
23543;SDS011;11950;51.230;4.012;2022-12-20T15:16:05;6.68;;;4.45;;
23543;SDS011;11950;51.230;4.012;2022-12-20T15:21:57;4.57;;;4.18;;
23543;SDS011;11950;51.230;4.012;2022-12-20T15:24:08;4.95;;;4.22;;
23543;SDS011;11950;51.230;4.012;2022-12-20T15:26:37;6.45;;;4.05;;
23543;SDS011;11950;51.230;4.012;2022-12-20T15:29:04;7.40;;;4.60;;
23543;SDS011;11950;51.230;4.012;2022-12-20T15:31:32;7.38;;;4.18;;
23543;SDS011;11950;51.230;4.012;2022-12-20T15:34:00;5.10;;;4.60;;
23543;SDS011;11950;51.230;4.012;2022-12-20T15:36:35;6.15;;;5.00;;
23543;SDS011;11950;51.230;4.012;2022-12-20T15:39:02;4.95;;;4.45;;
23543;SDS011;11950;51.230;4.012;2022-12-20T15:41:30;5.97;;;5.18;;
23543;SDS011;11950;51.230;4.012;2022-12-20T15:44:10;5.25;;;4.75;;
23543;SDS011;11950;51.230;4.012;2022-12-20T15:46:39;5.55;;;4.60;;
23543;SDS011;11950;51.230;4.012;2022-12-20T15:49:08;7.72;;;5.30;;
23543;SDS011;11950;51.230;4.012;2022-12-20T15:51:41;5.90;;;4.90;;
23543;SDS011;11950;51.230;4.012;2022-12-20T15:54:23;6.10;;;5.05;;
23543;SDS011;11950;51.230;4.012;2022-12-20T15:56:55;7.50;;;5.35;;
23543;SDS011;11950;51.230;4.012;2022-12-20T15:59:22;11.13;;;6.55;;
23543;SDS011;11950;51.230;4.012;2022-12-20T16:01:48;6.78;;;5.63;;
23543;SDS011;11950;51.230;4.012;2022-12-20T16:04:16;7.57;;;5.93;;
23543;SDS011;11950;51.230;4.012;2022-12-20T16:06:44;7.97;;;6.30;;
23543;SDS011;11950;51.230;4.012;2022-12-20T16:09:12;8.02;;;5.93;;
23543;SDS011;11950;51.230;4.012;2022-12-20T16:11:39;7.32;;;6.03;;
23543;SDS011;11950;51.230;4.012;2022-12-20T16:14:05;7.60;;;6.30;;
23543;SDS011;11950;51.230;4.012;2022-12-20T16:16:38;6.63;;;6.00;;
23543;SDS011;11950;51.230;4.012;2022-12-20T16:19:04;7.60;;;6.20;;
23543;SDS011;11950;51.230;4.012;2022-12-20T16:21:34;9.55;;;6.40;;
23543;SDS011;11950;51.230;4.012;2022-12-20T16:24:10;7.90;;;6.88;;
23543;SDS011;11950;51.230;4.012;2022-12-20T16:26:38;7.03;;;6.32;;
23543;SDS011;11950;51.230;4.012;2022-12-20T16:29:04;7.40;;;6.50;;
23543;SDS011;11950;51.230;4.012;2022-12-20T16:31:34;8.35;;;6.88;;
23543;SDS011;11950;51.230;4.012;2022-12-20T16:34:06;7.45;;;6.75;;
23543;SDS011;11950;51.230;4.012;2022-12-20T16:36:39;7.30;;;6.13;;
23543;SDS011;11950;51.230;4.012;2022-12-20T16:39:06;6.88;;;6.28;;
23543;SDS011;11950;51.230;4.012;2022-12-20T16:41:34;7.28;;;6.47;;
23543;SDS011;11950;51.230;4.012;2022-12-20T16:44:02;8.52;;;6.75;;
23543;SDS011;11950;51.230;4.012;2022-12-20T16:46:29;8.63;;;7.00;;
23543;SDS011;11950;51.230;4.012;2022-12-20T16:48:57;7.93;;;6.68;;
23543;SDS011;11950;51.230;4.012;2022-12-20T16:51:26;8.57;;;7.03;;
23543;SDS011;11950;51.230;4.012;2022-12-20T16:56:20;9.15;;;7.07;;
23543;SDS011;11950;51.230;4.012;2022-12-20T16:58:46;7.82;;;7.03;;
23543;SDS011;11950;51.230;4.012;2022-12-20T17:01:15;11.25;;;7.38;;
23543;SDS011;11950;51.230;4.012;2022-12-20T17:03:48;7.90;;;7.05;;
23543;SDS011;11950;51.230;4.012;2022-12-20T17:06:15;8.77;;;7.57;;
23543;SDS011;11950;51.230;4.012;2022-12-20T17:08:43;7.90;;;7.07;;
23543;SDS011;11950;51.230;4.012;2022-12-20T17:11:13;8.70;;;7.53;;
23543;SDS011;11950;51.230;4.012;2022-12-20T17:13:41;9.10;;;8.13;;
23543;SDS011;11950;51.230;4.012;2022-12-20T17:16:09;8.95;;;7.38;;
23543;SDS011;11950;51.230;4.012;2022-12-20T17:18:38;8.93;;;7.78;;
23543;SDS011;11950;51.230;4.012;2022-12-20T17:21:12;8.68;;;7.88;;
23543;SDS011;11950;51.230;4.012;2022-12-20T17:23:43;12.63;;;8.45;;
23543;SDS011;11950;51.230;4.012;2022-12-20T17:26:12;10.43;;;8.57;;
23543;SDS011;11950;51.230;4.012;2022-12-20T17:28:39;11.52;;;8.20;;
23543;SDS011;11950;51.230;4.012;2022-12-20T17:33:50;10.32;;;8.95;;
23543;SDS011;11950;51.230;4.012;2022-12-20T17:36:17;12.18;;;9.13;;
23543;SDS011;11950;51.230;4.012;2022-12-20T17:38:43;9.88;;;8.88;;
23543;SDS011;11950;51.230;4.012;2022-12-20T17:41:19;10.02;;;8.73;;
23543;SDS011;11950;51.230;4.012;2022-12-20T17:43:51;13.10;;;9.50;;
23543;SDS011;11950;51.230;4.012;2022-12-20T17:46:18;11.55;;;8.68;;